createdAt,value
2023-02-23T00:04:57.542Z,56780.82
2023-02-23T00:07:28.038Z,57465.99
2023-02-23T00:09:59.240Z,57453.28
2023-02-23T00:12:29.752Z,57453.28
2023-02-23T00:15:13.560Z,57458.58
2023-02-23T00:17:50.519Z,57455.40
2023-02-23T00:20:23.754Z,57455.40
2023-02-23T00:22:59.663Z,57500.94
2023-02-23T00:25:30.675Z,57500.94
2023-02-23T00:28:01.233Z,57455.40
2023-02-23T00:30:41.233Z,57465.99
2023-02-23T00:33:18.834Z,57463.87
2023-02-23T00:35:49.167Z,57465.99
2023-02-23T00:38:19.911Z,57476.58
2023-02-23T00:40:50.711Z,57454.34
2023-02-23T00:43:22.773Z,57461.76
2023-02-23T00:45:57.332Z,57458.58
2023-02-23T00:48:27.559Z,57471.29
2023-02-23T00:51:02.876Z,57471.29
2023-02-23T00:53:33.520Z,57467.05
2023-02-23T00:56:10.617Z,57486.12
2023-02-23T00:58:41.227Z,57456.46
2023-02-23T01:01:14.611Z,57471.29
2023-02-23T01:03:45.779Z,57471.29
2023-02-23T01:06:17.964Z,57460.70
2023-02-23T01:08:50.493Z,57454.34
2023-02-23T01:11:23.603Z,57444.81
2023-02-23T01:13:56.881Z,57484.00
2023-02-23T01:16:30.770Z,57458.58
2023-02-23T01:19:05.486Z,57435.28
2023-02-23T01:21:39.424Z,57467.05
2023-02-23T01:24:11.547Z,57488.23
2023-02-23T01:26:45.679Z,57461.76
2023-02-23T01:29:18.253Z,57461.76
2023-02-23T01:31:50.729Z,57459.64
2023-02-23T01:34:22.215Z,57457.52
2023-02-23T01:36:55.651Z,57475.52
2023-02-23T01:39:26.007Z,57475.52
2023-02-23T01:42:01.586Z,57476.58
2023-02-23T01:44:35.688Z,57475.52
2023-02-23T01:47:08.580Z,57481.88
2023-02-23T01:49:39.593Z,57473.41
2023-02-23T01:52:31.026Z,57482.94
2023-02-23T01:55:01.460Z,57462.82
2023-02-23T01:57:35.358Z,57467.05
2023-02-23T02:00:07.645Z,57446.93
2023-02-23T02:02:38.084Z,57459.64
2023-02-23T02:05:08.874Z,57459.64
2023-02-23T02:07:40.908Z,57467.05
2023-02-23T02:10:13.132Z,57471.29
2023-02-23T02:12:46.775Z,57453.28
2023-02-23T02:15:17.390Z,57462.82
2023-02-23T02:17:53.552Z,57462.82
2023-02-23T02:20:38.640Z,57469.17
2023-02-23T02:23:46.763Z,57450.11
2023-02-23T02:26:20.857Z,57478.70
2023-02-23T02:29:20.477Z,57484.00
2023-02-23T02:31:53.920Z,57473.41
2023-02-23T02:34:56.043Z,57480.82
2023-02-23T02:37:39.433Z,57489.29
2023-02-23T02:40:30.569Z,57480.82
2023-02-23T02:43:18.821Z,57462.82
2023-02-23T02:45:57.772Z,57471.29
2023-02-23T02:48:55.520Z,57476.58
2023-02-23T02:51:28.820Z,57497.77
2023-02-23T02:54:07.658Z,57440.57
2023-02-23T02:56:46.101Z,57463.87
2023-02-23T02:59:33.822Z,56852.83
2023-02-23T03:02:06.137Z,57463.87
2023-02-23T03:04:37.344Z,57490.35
2023-02-23T03:07:28.501Z,57472.35
2023-02-23T03:10:05.052Z,57472.35
2023-02-23T03:12:41.831Z,57441.63
2023-02-23T03:15:18.316Z,57450.11
2023-02-23T03:17:52.373Z,57450.11
2023-02-23T03:20:34.172Z,57447.99
2023-02-23T03:23:27.936Z,57474.46
2023-02-23T03:26:06.665Z,57438.46
2023-02-23T03:28:46.565Z,57447.99
2023-02-23T03:31:43.392Z,57487.18
2023-02-23T03:34:19.303Z,57460.70
2023-02-23T03:36:55.749Z,57487.18
2023-02-23T03:39:31.573Z,57486.12
2023-02-23T03:42:05.141Z,57464.93
2023-02-23T03:44:39.027Z,57464.93
2023-02-23T03:47:12.637Z,57463.87
2023-02-23T03:49:45.091Z,57482.94
2023-02-23T03:52:18.776Z,57458.58
2023-02-23T03:55:06.343Z,57510.48
2023-02-23T03:57:40.527Z,57510.48
2023-02-23T04:00:13.932Z,57454.34
2023-02-23T04:02:47.275Z,57454.34
2023-02-23T04:08:21.940Z,57449.05
2023-02-23T04:10:57.160Z,57471.29
2023-02-23T04:13:30.896Z,57471.29
2023-02-23T04:16:05.711Z,57488.23
2023-02-23T04:18:39.722Z,57475.52
2023-02-23T04:21:10.164Z,57475.52
2023-02-23T04:23:43.385Z,57484.00
2023-02-23T04:26:13.721Z,57486.12
2023-02-23T04:28:44.354Z,57472.35
2023-02-23T04:31:15.029Z,57462.82
2023-02-23T04:33:45.441Z,57462.82
2023-02-23T04:36:15.878Z,57443.75
2023-02-23T04:38:46.901Z,57462.82
2023-02-23T04:41:19.538Z,57472.35
2023-02-23T04:43:50.779Z,57497.77
2023-02-23T04:46:21.155Z,57468.11
2023-02-23T04:48:55.575Z,57493.53
2023-02-23T04:51:28.905Z,57465.99
2023-02-23T04:53:59.354Z,57481.88
2023-02-23T04:56:32.881Z,57449.05
2023-02-23T04:59:09.093Z,57471.29
2023-02-23T05:01:41.577Z,57477.64
2023-02-23T05:04:13.048Z,57477.64
2023-02-23T05:07:01.072Z,57491.41
2023-02-23T05:09:35.059Z,57474.46
2023-02-23T05:12:09.249Z,57449.05
2023-02-23T05:14:41.222Z,57460.70
2023-02-23T05:17:29.733Z,57473.41
2023-02-23T05:20:00.075Z,57490.35
2023-02-23T05:22:31.175Z,57490.35
2023-02-23T05:25:01.627Z,57463.87
2023-02-23T05:27:32.704Z,57475.52
2023-02-23T05:30:03.396Z,57494.59
2023-02-23T05:32:34.103Z,57476.58
2023-02-23T05:35:04.725Z,57476.58
2023-02-23T05:37:36.967Z,57464.93
2023-02-23T05:40:08.336Z,57492.47
2023-02-23T05:42:39.435Z,57492.47
2023-02-23T05:45:10.149Z,57460.70
2023-02-23T05:47:40.574Z,57477.64
2023-02-23T05:50:13.113Z,57433.16
2023-02-23T05:52:44.201Z,57441.63
2023-02-23T05:55:15.261Z,57441.63
2023-02-23T05:57:49.192Z,57449.05
2023-02-23T06:00:20.271Z,57449.05
2023-02-23T06:02:51.700Z,57502.00
2023-02-23T06:05:23.030Z,57441.63
2023-02-23T06:07:54.418Z,57469.17
2023-02-23T06:10:26.430Z,57441.63
2023-02-23T06:12:58.399Z,57441.63
2023-02-23T06:15:33.245Z,57453.28
2023-02-23T06:18:04.895Z,57457.52
2023-02-23T06:20:36.088Z,57476.58
2023-02-23T06:23:07.979Z,57460.70
2023-02-23T06:25:44.896Z,57451.16
2023-02-23T06:28:16.129Z,57447.99
2023-02-23T06:30:46.875Z,57447.99
2023-02-23T06:33:17.410Z,57439.52
2023-02-23T06:35:47.885Z,57439.52
2023-02-23T06:38:18.837Z,57469.17
2023-02-23T06:40:49.604Z,57469.17
2023-02-23T06:43:22.174Z,57460.70
2023-02-23T06:45:56.122Z,57445.87
2023-02-23T06:48:29.707Z,57445.87
2023-02-23T06:51:00.979Z,57465.99
2023-02-23T06:53:38.199Z,57465.99
2023-02-23T06:56:08.762Z,57481.88
2023-02-23T06:58:39.171Z,57414.10
2023-02-23T07:01:10.316Z,57388.68
2023-02-23T07:03:42.504Z,57388.68
2023-02-23T07:06:12.817Z,57407.74
2023-02-23T07:08:43.840Z,57407.74
2023-02-23T07:11:17.437Z,57388.68
2023-02-23T07:14:15.359Z,57382.32
2023-02-23T07:16:43.671Z,57389.74
2023-02-23T07:19:17.177Z,57389.74
2023-02-23T07:21:47.789Z,57393.98
2023-02-23T07:24:18.144Z,57388.68
2023-02-23T07:27:02.779Z,57365.38
2023-02-23T07:29:27.053Z,57387.62
2023-02-23T07:31:57.625Z,57387.62
2023-02-23T07:34:28.298Z,57370.68
2023-02-23T07:36:58.643Z,57370.68
2023-02-23T07:39:31.734Z,57374.91
2023-02-23T07:42:07.066Z,57408.80
2023-02-23T07:45:12.458Z,57408.80
2023-02-23T07:58:16.392Z,57382.32
2023-02-23T08:00:52.783Z,57399.27
2023-02-23T08:03:23.603Z,57382.32
2023-02-23T08:05:56.852Z,57366.44
2023-02-23T08:08:28.657Z,57378.09
2023-02-23T08:11:05.348Z,57331.49
2023-02-23T08:14:09.394Z,57331.49
2023-02-23T08:39:46.858Z,57365.38
2023-02-23T08:45:12.893Z,57324.07
2023-02-23T08:47:44.211Z,57328.31
2023-02-23T08:50:33.777Z,57339.96
2023-02-23T08:53:12.596Z,57336.79
2023-02-23T08:55:44.092Z,57307.13
2023-02-23T08:58:15.548Z,57325.14
2023-02-23T09:00:46.801Z,57345.26
2023-02-23T09:06:13.001Z,57345.26
2023-02-23T09:08:46.663Z,57332.55
2023-02-23T09:11:17.870Z,57332.55
2023-02-23T09:13:49.235Z,57357.96
2023-02-23T09:16:23.626Z,57347.38
2023-02-23T09:18:59.598Z,57337.84
2023-02-23T09:21:33.008Z,57337.84
2023-02-23T09:24:04.486Z,57328.31
2023-02-23T09:26:35.845Z,57348.43
2023-02-23T09:29:08.970Z,57329.37
2023-02-23T09:31:42.512Z,57370.68
2023-02-23T09:34:13.009Z,57333.61
2023-02-23T09:36:44.165Z,57332.55
2023-02-23T09:39:14.680Z,57332.55
2023-02-23T09:42:09.688Z,57348.43
2023-02-23T09:44:44.164Z,57369.62
2023-02-23T09:47:36.535Z,57334.67
2023-02-23T09:50:15.851Z,57350.55
2023-02-23T09:52:59.207Z,57350.55
2023-02-23T09:55:30.576Z,57346.32
2023-02-23T09:58:07.096Z,57347.38
2023-02-23T10:00:40.531Z,57330.43
2023-02-23T10:03:21.086Z,57330.43
2023-02-23T10:06:18.220Z,57360.08
2023-02-23T10:09:20.661Z,57347.38
2023-02-23T10:12:05.429Z,57363.26
2023-02-23T10:15:04.234Z,57333.61
2023-02-23T10:18:09.674Z,57362.20
2023-02-23T10:21:10.831Z,57329.37
2023-02-23T10:24:00.529Z,57334.67
2023-02-23T10:26:46.365Z,57335.73
2023-02-23T10:29:25.083Z,57352.67
2023-02-23T10:32:05.108Z,57352.67
2023-02-23T10:34:37.536Z,57371.73
2023-02-23T10:37:11.324Z,57371.73
2023-02-23T10:39:50.467Z,57365.38
2023-02-23T10:42:26.500Z,57355.85
2023-02-23T10:45:02.086Z,57355.85
2023-02-23T10:47:35.822Z,57355.85
2023-02-23T10:50:08.316Z,57355.85
2023-02-23T10:52:47.284Z,57362.20
2023-02-23T10:55:40.062Z,57354.79
2023-02-23T10:58:35.039Z,57329.37
2023-02-23T11:01:12.591Z,57336.79
2023-02-23T11:03:52.328Z,57357.96
2023-02-23T11:06:33.762Z,57357.96
2023-02-23T11:09:43.804Z,57355.85
2023-02-23T11:12:03.132Z,57349.49
2023-02-23T11:14:35.226Z,57343.14
2023-02-23T11:17:05.660Z,57341.02
2023-02-23T11:19:40.545Z,57337.84
2023-02-23T11:22:15.552Z,57356.91
2023-02-23T11:24:46.621Z,57330.43
2023-02-23T11:27:26.047Z,57330.43
2023-02-23T11:29:59.646Z,57330.43
2023-02-23T11:32:33.083Z,57345.26
2023-02-23T11:35:33.441Z,57337.84
2023-02-23T11:38:26.122Z,57334.67
2023-02-23T11:41:05.858Z,57339.96
2023-02-23T11:43:36.853Z,57352.67
2023-02-23T11:46:09.904Z,57342.08
2023-02-23T11:49:03.245Z,57342.08
2023-02-23T11:51:57.500Z,57346.32
2023-02-23T11:54:51.388Z,57339.96
2023-02-23T11:57:27.052Z,57317.72
2023-02-23T12:00:00.719Z,57336.79
2023-02-23T12:02:33.227Z,57343.14
2023-02-23T12:05:09.594Z,57329.37
2023-02-23T12:07:43.286Z,57332.55
2023-02-23T12:10:25.380Z,57332.55
2023-02-23T12:13:28.769Z,57348.43
2023-02-23T12:16:31.223Z,57354.79
2023-02-23T12:19:28.896Z,57328.31
2023-02-23T12:22:15.563Z,57328.31
2023-02-23T12:25:04.007Z,57321.96
2023-02-23T12:27:43.953Z,57326.20
2023-02-23T12:30:44.060Z,57351.61
2023-02-23T12:33:20.298Z,57325.14
2023-02-23T12:36:00.702Z,57325.14
2023-02-23T12:39:01.817Z,57331.49
2023-02-23T12:41:49.401Z,57316.66
2023-02-23T12:44:59.475Z,57335.73
2023-02-23T12:47:39.494Z,57344.20
2023-02-23T12:50:15.917Z,57329.37
2023-02-23T12:53:01.006Z,57325.14
2023-02-23T12:55:37.363Z,57345.26
2023-02-23T12:58:19.269Z,57383.38
2023-02-23T13:00:55.472Z,57328.31
2023-02-23T13:03:58.890Z,57328.31
2023-02-23T13:06:40.659Z,57323.02
2023-02-23T13:09:43.767Z,57344.20
2023-02-23T13:12:23.041Z,57344.20
2023-02-23T13:15:33.057Z,57368.55
2023-02-23T13:18:24.296Z,57355.85
2023-02-23T13:21:00.285Z,57334.67
2023-02-23T13:23:34.180Z,57390.80
2023-02-23T13:26:25.273Z,57384.44
2023-02-23T13:28:59.219Z,57380.21
2023-02-23T13:31:38.204Z,57404.57
2023-02-23T13:34:16.290Z,57404.57
2023-02-23T13:36:47.894Z,57365.38
2023-02-23T13:39:40.616Z,57384.44
2023-02-23T13:42:32.274Z,57407.74
2023-02-23T13:45:23.370Z,57380.21
2023-02-23T13:48:05.572Z,57417.27
2023-02-23T13:50:46.331Z,57417.27
2023-02-23T13:54:04.253Z,57403.51
2023-02-23T13:56:44.240Z,57403.51
2023-02-23T13:59:23.526Z,57407.74
2023-02-23T14:01:55.832Z,57398.21
2023-02-23T14:04:43.903Z,57387.62
2023-02-23T14:16:24.905Z,57384.44
2023-02-23T14:19:16.617Z,57384.44
2023-02-23T14:21:53.143Z,57400.33
2023-02-23T14:24:29.509Z,57400.33
2023-02-23T14:27:30.557Z,57409.86
2023-02-23T14:30:10.256Z,57388.68
2023-02-23T14:32:55.968Z,57407.74
2023-02-23T14:35:38.608Z,57407.74
2023-02-23T14:38:11.970Z,57420.45
2023-02-23T14:40:45.241Z,57382.32
2023-02-23T14:43:48.910Z,57413.04
2023-02-23T14:46:24.072Z,57407.74
2023-02-23T14:49:07.956Z,57425.75
2023-02-23T14:51:43.161Z,57383.38
2023-02-23T14:54:25.812Z,57393.98
2023-02-23T14:56:59.205Z,57393.98
2023-02-23T14:59:38.557Z,57429.98
2023-02-23T15:05:18.477Z,57420.45
2023-02-23T15:07:55.621Z,57373.85
2023-02-23T15:10:29.475Z,57402.45
2023-02-23T15:13:09.177Z,57402.45
2023-02-23T15:15:43.017Z,57429.98
2023-02-23T15:18:16.400Z,57429.98
2023-02-23T15:20:50.568Z,57366.44
2023-02-23T15:23:22.008Z,57405.62
2023-02-23T15:25:56.639Z,57415.16
2023-02-23T15:28:30.419Z,57415.16
2023-02-23T15:31:08.051Z,57416.21
2023-02-23T15:33:39.239Z,57416.21
2023-02-23T15:36:28.403Z,57424.69
2023-02-23T15:39:02.151Z,57411.98
2023-02-23T15:41:38.430Z,57411.98
2023-02-23T15:44:32.206Z,57416.21
2023-02-23T15:47:26.780Z,57404.57
2023-02-23T15:50:05.520Z,57400.33
2023-02-23T15:52:39.722Z,57439.52
2023-02-23T15:55:19.837Z,57435.28
2023-02-23T15:58:23.403Z,57402.45
2023-02-23T16:00:59.212Z,57422.57
2023-02-23T16:03:36.344Z,57435.28
2023-02-23T16:06:27.406Z,57435.28
2023-02-23T16:09:21.775Z,57414.10
2023-02-23T16:11:58.193Z,57446.93
2023-02-23T16:14:37.810Z,57446.93
2023-02-23T16:17:11.993Z,57404.57
2023-02-23T16:19:40.318Z,57422.57
2023-02-23T16:22:20.418Z,57416.21
2023-02-23T16:24:53.913Z,57427.87
2023-02-23T16:27:26.987Z,57407.74
2023-02-23T16:30:18.230Z,57444.81
2023-02-23T16:32:50.237Z,57445.87
2023-02-23T16:35:21.804Z,57428.92
2023-02-23T16:37:59.063Z,57427.87
2023-02-23T16:40:29.999Z,57427.87
2023-02-23T16:43:00.652Z,57420.45
2023-02-23T16:45:34.661Z,57391.86
2023-02-23T16:48:30.138Z,57424.69
2023-02-23T16:51:01.703Z,57425.75
2023-02-23T16:53:32.388Z,57399.27
2023-02-23T16:56:06.219Z,57420.45
2023-02-23T16:58:37.338Z,57420.45
2023-02-23T17:01:07.892Z,57443.75
2023-02-23T17:03:47.351Z,57401.39
2023-02-23T17:06:11.692Z,57429.98
2023-02-23T17:08:52.176Z,57410.92
2023-02-23T17:11:16.037Z,57420.45
2023-02-23T17:13:49.397Z,57420.45
2023-02-23T17:16:20.191Z,57441.63
2023-02-23T17:18:54.311Z,57428.92
2023-02-23T17:21:25.686Z,57440.57
2023-02-23T17:23:56.156Z,57441.63
2023-02-23T17:27:08.039Z,57441.63
2023-02-23T17:29:06.487Z,57408.80
2023-02-23T17:31:46.695Z,57443.75
2023-02-23T17:34:11.915Z,57443.75
2023-02-23T17:36:45.151Z,57437.39
2023-02-23T17:39:19.438Z,57437.39
2023-02-23T17:41:52.351Z,57437.39
2023-02-23T17:44:24.426Z,57435.28
2023-02-23T17:46:54.867Z,57454.34
2023-02-23T17:49:26.736Z,57453.28
2023-02-23T17:52:01.340Z,57426.80
2023-02-23T17:54:34.516Z,57426.80
2023-02-23T17:57:05.904Z,57444.81
2023-02-23T17:59:36.349Z,57435.28
2023-02-23T18:02:06.936Z,57423.63
2023-02-23T18:04:37.471Z,57431.04
2023-02-23T18:07:11.309Z,57410.92
2023-02-23T18:09:41.788Z,57423.63
2023-02-23T18:12:30.875Z,57443.75
2023-02-23T18:15:24.490Z,57420.45
2023-02-23T18:18:01.756Z,57432.10
2023-02-23T18:20:42.987Z,57428.92
2023-02-23T18:23:19.822Z,57449.05
2023-02-23T18:25:59.841Z,57438.46
2023-02-23T18:28:38.708Z,57438.46
2023-02-23T18:31:37.529Z,57439.52
2023-02-23T18:34:18.371Z,57427.87
2023-02-23T18:36:50.293Z,57447.99
2023-02-23T18:39:24.891Z,57446.93
2023-02-23T18:42:29.695Z,57438.46
2023-02-23T18:48:00.243Z,57452.23
2023-02-23T18:50:38.035Z,57439.52
2023-02-23T18:56:22.664Z,57475.52
2023-02-23T18:59:04.664Z,57475.52
2023-02-23T19:01:43.776Z,57418.33
2023-02-23T19:04:20.222Z,57463.87
2023-02-23T19:06:49.403Z,57463.87
2023-02-23T19:09:26.092Z,57424.69
2023-02-23T19:12:07.032Z,57434.22
2023-02-23T19:14:49.352Z,57435.28
2023-02-23T19:17:35.694Z,57445.87
2023-02-23T19:23:04.574Z,57393.98
2023-02-23T19:25:37.114Z,57442.69
2023-02-23T19:28:13.161Z,57429.98
2023-02-23T19:30:41.944Z,57438.46
2023-02-23T19:33:29.590Z,57438.46
2023-02-23T19:36:36.262Z,57443.75
2023-02-23T19:43:15.692Z,57437.39
2023-02-23T19:46:07.190Z,57449.05
2023-02-23T19:48:49.836Z,57449.05
2023-02-23T19:51:24.257Z,57445.87
2023-02-23T19:53:56.460Z,57431.04
2023-02-23T19:59:15.888Z,57440.57
2023-02-23T20:05:27.040Z,57441.63
2023-02-23T20:08:20.900Z,57413.04
2023-02-23T20:10:55.739Z,57442.69
2023-02-23T20:13:27.783Z,57442.69
2023-02-23T20:16:07.002Z,57442.69
2023-02-23T20:18:40.455Z,57400.33
2023-02-23T20:21:22.038Z,57400.33
2023-02-23T20:23:53.992Z,57414.10
2023-02-23T20:26:34.094Z,57424.69
2023-02-23T20:29:08.124Z,57447.99
2023-02-23T20:31:42.775Z,57439.52
2023-02-23T20:34:17.847Z,57439.52
2023-02-23T20:36:50.328Z,57438.46
2023-02-23T20:39:20.799Z,57421.51
2023-02-23T20:41:59.161Z,57423.63
2023-02-23T20:44:33.334Z,57419.39
2023-02-23T20:47:04.562Z,57414.10
2023-02-23T20:49:39.365Z,57414.10
2023-02-23T20:52:13.614Z,57422.57
2023-02-23T20:54:45.414Z,57422.57
2023-02-23T20:57:19.244Z,57419.39
2023-02-23T20:59:58.729Z,57461.76
2023-02-23T21:02:30.708Z,57408.80
2023-02-23T21:05:10.514Z,57420.45
2023-02-23T21:07:42.145Z,57429.98
2023-02-23T21:10:15.364Z,57429.98
2023-02-23T21:12:56.736Z,57421.51
2023-02-23T21:15:33.958Z,57421.51
2023-02-23T21:18:08.132Z,57442.69
2023-02-23T21:23:41.404Z,57435.28
2023-02-23T21:26:14.673Z,57457.52
2023-02-23T21:28:56.631Z,57435.28
2023-02-23T21:31:27.105Z,57439.52
2023-02-23T21:34:00.812Z,57441.63
2023-02-23T21:36:47.368Z,57446.93
2023-02-23T21:39:19.074Z,57445.87
2023-02-23T21:41:50.928Z,57414.10
2023-02-23T21:44:25.582Z,57432.10
2023-02-23T21:46:56.012Z,57435.28
2023-02-23T21:49:30.429Z,57435.28
2023-02-23T21:54:52.944Z,57413.04
2023-02-23T21:57:29.107Z,57451.16
2023-02-23T22:00:07.818Z,57451.16
2023-02-23T22:02:38.729Z,57426.80
2023-02-23T22:05:13.491Z,57426.80
2023-02-23T22:08:04.680Z,57400.33
2023-02-23T22:10:39.019Z,57400.33
2023-02-23T22:13:09.554Z,57460.70
2023-02-23T22:15:42.925Z,57471.29
2023-02-23T22:18:13.474Z,57463.87
2023-02-23T22:20:51.391Z,57447.99
2023-02-23T22:23:27.528Z,57420.45
2023-02-23T22:25:55.462Z,57402.45
2023-02-23T22:28:30.173Z,57425.75
2023-02-23T22:31:20.481Z,57446.93
2023-02-23T22:33:56.097Z,57456.46
2023-02-23T22:36:28.441Z,57457.52
2023-02-23T22:39:03.720Z,57431.04
2023-02-23T22:41:37.093Z,57441.63
2023-02-23T22:46:57.082Z,57462.82
2023-02-23T22:49:31.539Z,57439.52
2023-02-23T22:52:02.767Z,57431.04
2023-02-23T22:54:37.510Z,57431.04
2023-02-23T22:57:08.113Z,57438.46
2023-02-23T22:59:39.733Z,57472.35
2023-02-23T23:02:10.857Z,57441.63
2023-02-23T23:04:42.522Z,57428.92
2023-02-23T23:07:13.407Z,57447.99
2023-02-23T23:09:45.995Z,57447.99
2023-02-23T23:12:19.180Z,57458.58
2023-02-23T23:14:52.454Z,57435.28
2023-02-23T23:17:22.421Z,57454.34
2023-02-23T23:19:53.524Z,57454.34
2023-02-23T23:22:26.863Z,57444.81
2023-02-23T23:24:59.347Z,57444.81
2023-02-23T23:27:29.797Z,57461.76
2023-02-23T23:30:06.961Z,57436.34
2023-02-23T23:32:38.677Z,57436.34
2023-02-23T23:35:09.482Z,57427.87
2023-02-23T23:37:40.724Z,57417.27
2023-02-23T23:40:13.957Z,57417.27
2023-02-23T23:42:51.283Z,57481.88
2023-02-23T23:45:21.973Z,57457.52
2023-02-23T23:47:52.411Z,57437.39
2023-02-23T23:50:23.354Z,57456.46
2023-02-23T23:52:54.888Z,57456.46
2023-02-23T23:55:25.210Z,57420.45
2023-02-23T23:57:55.609Z,57435.28
